Time;durP1;ratioP1;P1;durP2;ratioP2;P2;SDS_P1;SDS_P2;PMS_P1;PMS_P2;Temp;Humidity;BMP_temperature;BMP_pressure;BME280_temperature;BME280_humidity;BME280_pressure;Samples;Min_cycle;Max_cycle;Signal;HPM_P1;HPM_P2
2023/06/09 00:01:44;;;;;;;6.05;3.65;;;;;;;15.89;53.30;101349.00;5030710;28;20036;-82
2023/06/09 00:04:09;;;;;;;7.80;3.67;;;;;;;15.84;53.46;101347.97;5023330;28;20380;-82
2023/06/09 00:06:35;;;;;;;6.43;3.50;;;;;;;15.83;53.82;101355.28;5030735;28;20587;-82
2023/06/09 00:09:01;;;;;;;8.32;3.58;;;;;;;15.82;53.90;101350.91;5021219;28;20034;-82
2023/06/09 00:11:27;;;;;;;8.80;3.70;;;;;;;15.80;54.22;101355.72;5029582;28;20052;-82
2023/06/09 00:13:53;;;;;;;10.60;3.88;;;;;;;15.76;54.23;101351.78;5029728;28;20036;-82
2023/06/09 00:16:18;;;;;;;8.82;3.85;;;;;;;15.71;54.66;101346.16;5031528;28;20422;-83
2023/06/09 00:18:45;;;;;;;6.63;3.63;;;;;;;15.65;54.70;101347.06;5017770;28;20110;-83
2023/06/09 00:21:17;;;;;;;6.40;3.80;;;;;;;15.62;54.75;101342.88;5025696;28;20500;-83
2023/06/09 00:23:44;;;;;;;10.85;4.20;;;;;;;15.51;55.46;101352.59;5029546;28;20025;-83
2023/06/09 00:26:11;;;;;;;10.80;4.13;;;;;;;15.45;55.71;101353.44;5030849;28;20041;-83
2023/06/09 00:28:37;;;;;;;6.63;3.80;;;;;;;15.39;55.71;101349.72;5030115;28;20033;-83
2023/06/09 00:31:04;;;;;;;6.80;3.75;;;;;;;15.31;56.09;101352.66;5029259;28;20056;-83
2023/06/09 00:33:29;;;;;;;8.55;3.55;;;;;;;15.27;56.18;101351.44;5029474;28;20030;-83
2023/06/09 00:35:55;;;;;;;9.38;4.03;;;;;;;15.20;56.71;101356.06;5012325;28;20033;-83
2023/06/09 00:38:20;;;;;;;6.28;3.60;;;;;;;15.15;57.02;101352.13;5028940;28;20117;-83
2023/06/09 00:40:46;;;;;;;7.10;3.85;;;;;;;15.09;57.03;101352.97;5031119;28;20116;-83
2023/06/09 00:43:11;;;;;;;10.20;4.82;;;;;;;15.00;57.32;101357.81;5029539;28;20044;-83
2023/06/09 00:45:37;;;;;;;7.82;3.65;;;;;;;14.98;57.52;101342.81;5027983;28;20014;-83
2023/06/09 00:48:03;;;;;;;5.63;3.65;;;;;;;14.91;57.98;101348.25;5031282;28;20536;-82
2023/06/09 00:50:28;;;;;;;7.70;3.80;;;;;;;14.86;58.03;101334.50;5028873;28;20139;-83
2023/06/09 00:52:53;;;;;;;7.65;3.85;;;;;;;14.84;58.45;101339.28;5011655;28;20025;-83
2023/06/09 00:55:19;;;;;;;9.73;4.00;;;;;;;14.76;58.60;101340.38;5010775;28;20038;-82
2023/06/09 00:57:46;;;;;;;9.25;3.78;;;;;;;14.71;58.83;101337.47;4984275;28;20025;-83
2023/06/09 01:00:15;;;;;;;8.65;3.80;;;;;;;14.66;59.15;101339.97;5026062;28;20037;-82
2023/06/09 01:02:42;;;;;;;9.50;4.05;;;;;;;14.63;59.26;101349.34;5027085;28;20061;-82
2023/06/09 01:05:08;;;;;;;11.02;4.22;;;;;;;14.59;59.41;101333.72;5028263;28;20029;-82
2023/06/09 01:07:54;;;;;;;10.63;3.85;;;;;;;14.54;59.77;101346.03;4989929;28;20040;-82
2023/06/09 01:10:31;;;;;;;9.32;4.00;;;;;;;14.49;59.98;101332.28;5027759;28;20038;-83
2023/06/09 01:13:06;;;;;;;12.20;3.90;;;;;;;14.42;60.26;101338.75;5008983;28;20485;-82
2023/06/09 01:15:33;;;;;;;6.85;4.05;;;;;;;14.38;60.67;101333.75;4998202;28;20109;-82
2023/06/09 01:18:02;;;;;;;11.15;4.40;;;;;;;14.35;60.40;101326.03;5037713;28;20048;-82
2023/06/09 01:20:45;;;;;;;9.98;4.03;;;;;;;14.31;61.39;101322.09;4996791;28;20041;-82
2023/06/09 01:23:20;;;;;;;9.25;3.88;;;;;;;14.32;61.01;101323.75;4994954;28;20030;-81
2023/06/09 01:25:46;;;;;;;9.93;3.97;;;;;;;14.28;61.48;101327.09;4994633;28;20025;-82
2023/06/09 01:28:16;;;;;;;10.65;4.20;;;;;;;14.20;61.78;101330.84;4993837;28;20092;-82
2023/06/09 01:30:41;;;;;;;14.70;4.63;;;;;;;14.12;62.23;101325.66;5013927;28;20021;-83
2023/06/09 01:33:10;;;;;;;8.85;3.80;;;;;;;14.08;62.18;101323.38;4992830;28;20528;-82
2023/06/09 01:35:37;;;;;;;8.30;3.92;;;;;;;14.05;62.35;101312.97;5001589;28;20021;-83
2023/06/09 01:38:03;;;;;;;10.45;4.32;;;;;;;14.01;62.68;101322.53;4995025;28;20528;-82
2023/06/09 01:40:29;;;;;;;12.90;4.18;;;;;;;13.97;63.23;101315.03;5029752;28;20121;-83
2023/06/09 01:42:58;;;;;;;8.38;4.05;;;;;;;13.95;63.37;101315.22;5010813;28;20029;-82
2023/06/09 01:45:23;;;;;;;13.00;4.20;;;;;;;13.89;63.47;101314.19;5011580;28;20101;-82
2023/06/09 01:47:49;;;;;;;14.38;4.63;;;;;;;13.85;63.91;101320.25;5028719;28;20493;-82
2023/06/09 01:50:18;;;;;;;9.82;4.05;;;;;;;13.84;64.05;101321.28;5009318;28;20037;-82
2023/06/09 01:52:58;;;;;;;9.80;3.97;;;;;;;13.85;63.73;101312.13;5010346;28;20104;-82
2023/06/09 01:55:34;;;;;;;9.52;3.83;;;;;;;13.79;64.28;101313.78;5010843;28;20033;-82
2023/06/09 01:58:21;;;;;;;9.35;4.07;;;;;;;13.74;64.35;101314.41;5025653;28;20029;-82
2023/06/09 02:00:47;;;;;;;7.15;3.95;;;;;;;13.70;64.71;101318.56;5010281;28;20733;-82
2023/06/09 02:03:12;;;;;;;10.73;4.30;;;;;;;13.68;64.87;101317.13;4990454;28;20550;-82
2023/06/09 02:05:38;;;;;;;11.60;4.53;;;;;;;13.63;65.09;101306.88;4992807;28;20131;-82
2023/06/09 02:08:03;;;;;;;10.80;4.03;;;;;;;13.60;65.20;101305.44;5010312;28;20025;-82
2023/06/09 02:10:28;;;;;;;9.20;4.50;;;;;;;13.61;65.34;101307.09;5024198;28;20044;-81
2023/06/09 02:12:54;;;;;;;7.45;3.67;;;;;;;13.56;65.63;101308.78;4994713;28;20089;-82
2023/06/09 02:15:20;;;;;;;11.95;4.78;;;;;;;13.54;65.48;101305.44;5037407;28;20590;-82
2023/06/09 02:17:46;;;;;;;14.15;4.60;;;;;;;13.47;66.18;101300.84;5026412;28;20109;-83
2023/06/09 02:20:11;;;;;;;11.13;4.03;;;;;;;13.44;66.62;101301.25;5028222;28;20481;-82
2023/06/09 02:22:37;;;;;;;12.80;5.07;;;;;;;13.37;66.46;101308.50;5006306;28;20025;-83
2023/06/09 02:25:05;;;;;;;13.55;4.50;;;;;;;13.32;66.73;101311.81;5026620;28;20108;-82
2023/06/09 02:27:31;;;;;;;12.15;4.38;;;;;;;13.31;67.07;101304.75;5027504;28;20026;-82
2023/06/09 02:29:56;;;;;;;11.25;4.55;;;;;;;13.25;67.37;101310.09;5025137;28;20049;-82
2023/06/09 02:32:22;;;;;;;9.73;4.35;;;;;;;13.24;67.46;101311.16;5012716;28;20033;-82
2023/06/09 02:34:47;;;;;;;12.95;4.30;;;;;;;13.18;67.60;101299.28;5029253;28;20039;-82
2023/06/09 02:37:13;;;;;;;12.65;4.65;;;;;;;13.16;67.87;101304.91;5026552;28;20017;-82
2023/06/09 02:39:38;;;;;;;10.18;4.20;;;;;;;13.13;68.11;101310.69;5021941;28;20038;-82
2023/06/09 02:42:05;;;;;;;12.68;4.57;;;;;;;13.09;68.75;101304.03;5021673;28;20488;-82
2023/06/09 02:44:32;;;;;;;9.23;4.40;;;;;;;13.09;68.67;101298.63;5030609;28;20033;-82
2023/06/09 02:46:58;;;;;;;8.13;4.78;;;;;;;13.03;69.02;101305.66;5031536;28;20025;-81
2023/06/09 02:49:23;;;;;;;16.13;5.20;;;;;;;13.02;69.00;101300.47;5031046;28;20030;-82
2023/06/09 02:51:49;;;;;;;15.68;4.88;;;;;;;12.98;69.34;101296.50;5012768;28;20449;-82
2023/06/09 02:54:15;;;;;;;10.73;4.00;;;;;;;12.99;69.34;101298.19;5030569;28;20025;-82
2023/06/09 02:56:40;;;;;;;13.18;4.40;;;;;;;13.00;69.57;101302.56;5031014;28;20033;-81
2023/06/09 02:59:07;;;;;;;8.25;4.50;;;;;;;12.95;69.70;101310.41;5030122;28;20033;-82
2023/06/09 03:01:34;;;;;;;10.38;4.22;;;;;;;12.91;69.94;101306.44;5031789;28;20029;-81
2023/06/09 03:04:02;;;;;;;10.32;4.60;;;;;;;12.86;70.16;101307.91;5029152;28;20048;-81
2023/06/09 03:06:32;;;;;;;9.98;4.38;;;;;;;12.85;70.60;101308.94;5026900;28;20052;-81
2023/06/09 03:08:58;;;;;;;10.15;4.70;;;;;;;12.82;70.25;101311.19;5023880;28;20030;-81
2023/06/09 03:11:23;;;;;;;12.13;4.70;;;;;;;12.79;70.70;101307.03;5030090;28;20426;-82
2023/06/09 03:13:48;;;;;;;19.73;5.43;;;;;;;12.78;71.09;101310.75;5028555;28;20026;-82
2023/06/09 03:16:17;;;;;;;12.32;4.45;;;;;;;12.74;71.12;101310.34;5030195;28;20035;-81
2023/06/09 03:18:42;;;;;;;12.13;4.55;;;;;;;12.73;71.28;101310.53;5030217;28;20060;-82
2023/06/09 03:21:08;;;;;;;13.25;4.82;;;;;;;12.71;71.00;101307.19;5030625;28;20029;-80
2023/06/09 03:23:34;;;;;;;13.15;4.78;;;;;;;12.70;71.07;101316.34;5033347;28;20347;-81
2023/06/09 03:26:02;;;;;;;12.00;5.45;;;;;;;12.71;71.20;101312.59;5031626;28;20037;-81
2023/06/09 03:28:27;;;;;;;13.27;5.30;;;;;;;12.69;71.68;101317.38;5031413;28;20168;-81
2023/06/09 03:30:54;;;;;;;15.50;5.57;;;;;;;12.67;71.66;101320.25;5031973;28;20025;-81
2023/06/09 03:33:20;;;;;;;8.85;4.25;;;;;;;12.66;72.00;101315.06;5030646;28;20044;-83
2023/06/09 03:35:47;;;;;;;14.35;4.47;;;;;;;12.66;71.88;101315.06;5030209;28;20033;-81
2023/06/09 03:38:13;;;;;;;13.65;4.65;;;;;;;12.68;72.09;101313.00;5031832;28;20398;-81
2023/06/09 03:40:38;;;;;;;12.10;4.78;;;;;;;12.65;72.44;101318.81;5030760;28;20033;-81
2023/06/09 03:43:03;;;;;;;15.75;5.28;;;;;;;12.66;72.19;101315.06;5031325;28;20021;-81
2023/06/09 03:45:29;;;;;;;10.93;4.70;;;;;;;12.67;72.18;101316.75;5031800;28;20388;-81
2023/06/09 03:47:54;;;;;;;12.32;4.60;;;;;;;12.67;72.37;101316.75;5030831;28;20024;-81
2023/06/09 03:50:20;;;;;;;9.02;4.63;;;;;;;12.66;72.60;101321.28;5031283;28;20017;-81
2023/06/09 03:52:46;;;;;;;13.77;4.68;;;;;;;12.69;72.70;101314.69;5036906;28;20025;-80
2023/06/09 03:55:12;;;;;;;12.55;4.70;;;;;;;12.73;72.42;101310.53;5029057;28;20026;-80
2023/06/09 03:57:37;;;;;;;14.43;5.20;;;;;;;12.76;72.78;101320.94;5029758;28;20032;-82
2023/06/09 04:00:03;;;;;;;18.45;5.05;;;;;;;12.81;72.68;101315.78;5031536;28;20029;-82
2023/06/09 04:02:28;;;;;;;14.57;5.40;;;;;;;12.79;72.69;101311.63;5028894;28;20033;-80
2023/06/09 04:04:55;;;;;;;13.02;4.93;;;;;;;12.84;72.67;101323.47;5022160;28;20033;-81
2023/06/09 04:07:21;;;;;;;13.60;4.97;;;;;;;12.86;72.64;101320.56;5029787;28;20025;-81
2023/06/09 04:09:46;;;;;;;12.70;4.88;;;;;;;12.86;72.67;101325.97;5029387;28;20036;-81
2023/06/09 04:12:12;;;;;;;13.30;5.13;;;;;;;12.92;72.65;101329.72;5028110;28;20049;-81
2023/06/09 04:14:37;;;;;;;18.02;5.15;;;;;;;12.95;72.58;101324.78;5028780;28;20017;-87
2023/06/09 04:17:03;;;;;;;14.32;5.57;;;;;;;13.03;72.05;101331.88;5027644;28;20409;-84
2023/06/09 04:19:29;;;;;;;10.77;5.00;;;;;;;13.07;72.28;101333.13;5030237;28;20048;-84
2023/06/09 04:21:54;;;;;;;13.15;5.45;;;;;;;13.02;72.58;101328.31;5029108;28;20041;-84
2023/06/09 04:24:21;;;;;;;12.77;5.40;;;;;;;13.13;72.26;101343.13;5022230;28;20095;-84
2023/06/09 04:26:47;;;;;;;12.43;5.28;;;;;;;13.23;71.89;101333.84;5041150;28;20097;-83
2023/06/09 04:29:13;;;;;;;14.07;5.40;;;;;;;13.35;71.69;101345.72;5039287;28;20025;-83
2023/06/09 04:31:42;;;;;;;13.35;4.93;;;;;;;13.47;71.55;101333.28;5023962;28;20092;-84
2023/06/09 04:34:10;;;;;;;10.15;5.35;;;;;;;13.72;70.72;101340.84;5029282;28;20052;-84
2023/06/09 04:36:38;;;;;;;11.05;5.47;;;;;;;14.34;68.82;101339.81;5032067;28;20063;-84
2023/06/09 04:39:05;;;;;;;14.07;5.50;;;;;;;14.84;66.41;101336.59;5043131;28;20121;-84
2023/06/09 04:41:31;;;;;;;11.95;5.18;;;;;;;15.38;64.91;101339.06;5033144;28;20037;-85
2023/06/09 04:44:05;;;;;;;17.10;5.82;;;;;;;15.86;63.45;101341.31;5032452;28;20025;-84
2023/06/09 04:46:37;;;;;;;12.85;5.50;;;;;;;16.36;61.48;101336.91;5026633;28;20053;-84
2023/06/09 04:49:08;;;;;;;13.30;5.75;;;;;;;16.38;61.40;101334.81;5017751;28;20021;-84
2023/06/09 04:51:48;;;;;;;16.13;6.00;;;;;;;16.72;60.51;101339.88;5028526;28;20021;-85
2023/06/09 04:54:16;;;;;;;13.07;5.80;;;;;;;16.80;59.97;101334.97;5028890;28;20026;-84
2023/06/09 04:56:52;;;;;;;15.50;6.22;;;;;;;17.12;59.32;101339.44;5028218;28;20041;-84
2023/06/09 04:59:17;;;;;;;13.40;5.67;;;;;;;17.62;58.00;101334.78;5027774;28;20025;-85
2023/06/09 05:01:46;;;;;;;17.75;6.93;;;;;;;17.82;56.98;101332.59;5030408;28;20022;-84
2023/06/09 05:04:12;;;;;;;12.73;5.82;;;;;;;18.12;56.46;101336.34;5026940;28;20029;-84
2023/06/09 05:06:37;;;;;;;12.15;6.20;;;;;;;17.99;56.29;101340.97;5023580;28;20380;-84
2023/06/09 05:09:06;;;;;;;14.50;6.32;;;;;;;18.25;55.89;101344.28;5024197;28;20708;-84
2023/06/09 05:11:31;;;;;;;16.70;6.20;;;;;;;18.64;55.11;101339.16;5028676;28;20133;-84
2023/06/09 05:13:57;;;;;;;12.18;5.95;;;;;;;19.19;53.54;101347.97;5036180;28;20059;-85
2023/06/09 05:16:25;;;;;;;12.05;6.35;;;;;;;19.06;53.77;101351.78;5022551;28;20033;-84
2023/06/09 05:18:51;;;;;;;13.13;5.90;;;;;;;19.50;52.88;101348.53;5028770;28;20416;-85
2023/06/09 05:21:17;;;;;;;13.23;6.10;;;;;;;19.59;52.38;101354.44;5028661;28;20075;-84
2023/06/09 05:23:42;;;;;;;18.38;6.25;;;;;;;19.23;53.65;101351.88;5030031;28;20355;-85
2023/06/09 05:26:07;;;;;;;13.20;6.13;;;;;;;19.48;52.99;101350.69;5036830;28;20021;-84
2023/06/09 05:28:35;;;;;;;15.43;6.53;;;;;;;20.04;51.55;101350.03;5041162;28;20525;-84
2023/06/09 05:31:01;;;;;;;14.75;6.40;;;;;;;20.41;51.00;101349.50;5013488;28;20445;-85
2023/06/09 05:33:26;;;;;;;13.10;5.82;;;;;;;20.67;49.41;101355.31;5027564;28;20507;-85
2023/06/09 05:35:52;;;;;;;13.38;6.28;;;;;;;20.65;49.84;101349.28;5029053;28;20140;-85
2023/06/09 05:38:18;;;;;;;16.77;6.53;;;;;;;21.17;48.68;101356.25;5029799;28;20026;-84
2023/06/09 05:40:47;;;;;;;13.43;6.05;;;;;;;21.26;48.24;101362.13;5010853;28;20059;-85
2023/06/09 05:43:12;;;;;;;12.73;6.40;;;;;;;21.23;48.31;101357.13;5028785;28;20033;-85
2023/06/09 05:45:37;;;;;;;12.82;6.35;;;;;;;21.19;48.60;101353.25;5030111;28;20043;-85
2023/06/09 05:48:03;;;;;;;11.88;6.38;;;;;;;21.90;47.15;101351.53;5027817;28;20108;-85
2023/06/09 05:50:28;;;;;;;16.13;6.90;;;;;;;21.89;47.41;101353.44;5015471;28;20033;-77
2023/06/09 05:52:54;;;;;;;11.70;6.82;;;;;;;21.53;48.54;101349.50;5027167;28;20041;-91
2023/06/09 05:55:20;;;;;;;17.45;7.05;;;;;;;21.51;47.99;101355.25;5010970;28;20029;-89
2023/06/09 05:57:45;;;;;;;12.43;6.53;;;;;;;20.97;49.30;101354.13;5038791;28;20029;-81
2023/06/09 06:00:11;;;;;;;15.25;6.88;;;;;;;21.86;48.26;101355.88;5031135;28;20033;-85
2023/06/09 06:02:38;;;;;;;12.93;6.65;;;;;;;22.56;46.25;101355.84;5017790;28;20061;-84
2023/06/09 06:05:07;;;;;;;15.00;7.03;;;;;;;22.95;45.48;101362.88;5026712;28;20483;-86
2023/06/09 06:07:36;;;;;;;13.15;7.22;;;;;;;23.55;44.08;101368.06;5029678;28;20091;-87
2023/06/09 06:10:04;;;;;;;16.23;7.18;;;;;;;23.75;43.64;101367.25;5015640;28;20036;-84
2023/06/09 06:12:33;;;;;;;13.02;7.00;;;;;;;23.87;42.91;101366.97;5004326;28;20053;-83
2023/06/09 06:14:58;;;;;;;11.15;6.60;;;;;;;23.94;42.71;101367.53;5028750;28;20120;-83
2023/06/09 06:17:24;;;;;;;14.27;6.72;;;;;;;24.07;42.80;101358.75;5025773;28;20374;-82
2023/06/09 06:19:50;;;;;;;13.45;6.97;;;;;;;24.48;41.75;101357.06;5025810;28;20030;-82
2023/06/09 06:22:15;;;;;;;12.38;6.70;;;;;;;24.50;41.49;101361.16;5023932;28;20048;-82
2023/06/09 06:24:40;;;;;;;16.38;7.00;;;;;;;24.40;42.45;101354.84;5023691;28;20112;-83
2023/06/09 06:27:06;;;;;;;12.23;6.72;;;;;;;25.10;41.21;101373.38;5029427;28;20365;-82
2023/06/09 06:29:32;;;;;;;16.38;7.30;;;;;;;24.67;41.80;101365.53;5023937;28;20038;-82
2023/06/09 06:31:57;;;;;;;13.18;7.22;;;;;;;24.65;41.63;101363.06;5017870;28;20030;-81
2023/06/09 06:34:24;;;;;;;13.18;7.22;;;;;;;25.07;40.80;101373.94;5025240;28;20033;-82
2023/06/09 06:36:49;;;;;;;13.35;7.13;;;;;;;25.08;41.45;101370.06;5028988;28;20024;-82
2023/06/09 06:39:15;;;;;;;10.65;6.68;;;;;;;25.91;39.67;101359.38;5023333;28;20022;-82
2023/06/09 06:41:46;;;;;;;14.70;6.72;;;;;;;26.67;38.17;101358.91;5020715;28;20426;-81
2023/06/09 06:44:11;;;;;;;12.57;6.82;;;;;;;27.06;37.05;101366.19;5042463;28;20453;-83
2023/06/09 06:46:37;;;;;;;11.68;6.30;;;;;;;27.46;36.30;101359.59;5046468;28;20028;-81
2023/06/09 06:49:03;;;;;;;12.48;6.93;;;;;;;26.83;37.61;101356.00;5027862;28;20029;-83
2023/06/09 06:51:28;;;;;;;14.23;6.93;;;;;;;26.60;37.90;101350.16;5027510;28;20034;-84
2023/06/09 06:53:53;;;;;;;13.15;7.03;;;;;;;26.30;38.28;101357.66;5030951;28;20100;-83
2023/06/09 06:56:19;;;;;;;14.75;6.88;;;;;;;26.67;38.36;101350.63;5048905;28;20037;-82
2023/06/09 06:58:47;;;;;;;10.18;6.40;;;;;;;27.55;36.28;101357.78;5031004;28;20124;-82
2023/06/09 07:01:14;;;;;;;9.70;6.50;;;;;;;28.08;35.36;101369.66;5029616;28;20548;-81
2023/06/09 07:03:39;;;;;;;10.43;6.43;;;;;;;27.88;35.32;101357.84;5010207;28;20130;-81
2023/06/09 07:06:07;;;;;;;12.13;6.85;;;;;;;28.68;34.96;101359.69;5028106;28;20026;-81
2023/06/09 07:08:32;;;;;;;12.35;6.60;;;;;;;28.57;34.60;101362.69;5027076;28;20033;-80
2023/06/09 07:10:58;;;;;;;10.82;6.95;;;;;;;28.20;35.12;101358.97;5018927;28;20642;-80
2023/06/09 07:13:26;;;;;;;10.68;5.90;;;;;;;28.86;34.43;101367.13;5008082;28;20544;-81
2023/06/09 07:15:52;;;;;;;13.43;6.57;;;;;;;28.59;34.47;101367.91;5012026;28;20065;-81
2023/06/09 07:18:17;;;;;;;10.90;7.00;;;;;;;26.80;37.87;101368.47;5030798;28;20029;-80
2023/06/09 07:20:43;;;;;;;12.93;7.00;;;;;;;27.28;37.41;101361.19;5031765;28;20431;-80
2023/06/09 07:23:08;;;;;;;9.23;6.88;;;;;;;27.12;37.56;101363.38;5032656;28;20481;-80
2023/06/09 07:25:33;;;;;;;12.02;6.97;;;;;;;27.87;36.58;101361.72;5032133;28;20416;-80
2023/06/09 07:27:59;;;;;;;10.40;5.78;;;;;;;29.26;33.93;101365.72;5032461;28;20389;-81
2023/06/09 07:30:27;;;;;;;10.32;7.20;;;;;;;28.99;34.15;101364.63;5032144;28;20081;-86
2023/06/09 07:32:53;;;;;;;11.63;7.00;;;;;;;29.27;33.93;101365.38;5022315;28;20469;-81
2023/06/09 07:35:19;;;;;;;9.52;6.03;;;;;;;29.22;34.05;101367.47;5052020;28;20036;-82
2023/06/09 07:37:46;;;;;;;16.75;6.95;;;;;;;29.09;34.34;101364.41;5048865;28;20033;-81
2023/06/09 07:40:11;;;;;;;11.48;6.65;;;;;;;29.68;33.44;101366.41;5013504;28;20083;-81
2023/06/09 07:42:37;;;;;;;11.98;7.00;;;;;;;28.47;35.67;101362.06;5023897;28;20021;-82
2023/06/09 07:45:02;;;;;;;13.18;6.45;;;;;;;27.72;36.73;101361.94;5031633;28;20029;-82
2023/06/09 07:47:28;;;;;;;12.05;7.13;;;;;;;28.66;35.17;101364.72;5027336;28;20630;-81
2023/06/09 07:49:53;;;;;;;10.85;6.05;;;;;;;30.02;32.83;101353.91;5027087;28;20107;-81
2023/06/09 07:52:18;;;;;;;10.82;6.85;;;;;;;30.59;31.64;101355.19;5014624;28;20029;-81
2023/06/09 07:54:47;;;;;;;10.77;6.30;;;;;;;30.19;31.42;101355.97;5027519;28;20361;-80
2023/06/09 07:57:12;;;;;;;11.00;5.72;;;;;;;30.75;31.41;101351.97;5032827;28;20443;-79
2023/06/09 07:59:38;;;;;;;11.68;5.97;;;;;;;30.59;32.21;101355.19;5025959;28;20026;-80
2023/06/09 08:02:03;;;;;;;10.82;6.60;;;;;;;31.03;31.24;101363.63;5010706;28;20022;-81
2023/06/09 08:04:29;;;;;;;9.20;5.88;;;;;;;31.78;30.00;101359.91;5010429;28;20741;-81
2023/06/09 08:06:59;;;;;;;9.23;6.57;;;;;;;30.79;31.46;101355.75;5026064;28;20029;-80
2023/06/09 08:09:27;;;;;;;7.82;6.00;;;;;;;30.69;31.34;101354.91;5029701;28;20033;-78
2023/06/09 08:11:55;;;;;;;10.88;6.70;;;;;;;30.91;31.68;101358.69;5011944;28;20057;-82
2023/06/09 08:14:22;;;;;;;8.50;5.10;;;;;;;31.92;30.72;101353.38;5031927;28;20033;-88
2023/06/09 08:16:47;;;;;;;10.07;6.78;;;;;;;31.60;30.26;101361.88;5031181;28;20041;-85
2023/06/09 08:19:12;;;;;;;9.45;6.13;;;;;;;31.82;30.65;101360.09;5030955;28;20109;-85
2023/06/09 08:21:43;;;;;;;10.63;6.45;;;;;;;32.21;29.46;101350.66;5031491;28;20026;-86
2023/06/09 08:24:12;;;;;;;7.35;5.38;;;;;;;32.53;29.13;101363.50;5031244;28;20047;-85
2023/06/09 08:26:37;;;;;;;10.48;6.28;;;;;;;33.05;28.06;101357.63;5012565;28;20117;-86
2023/06/09 08:29:03;;;;;;;11.85;5.82;;;;;;;33.06;28.52;101355.66;5024850;28;20175;-85
2023/06/09 08:31:29;;;;;;;9.02;5.80;;;;;;;33.53;27.80;101351.88;5012661;28;20044;-84
2023/06/09 08:33:55;;;;;;;7.45;5.70;;;;;;;33.12;28.43;101351.50;5028075;28;20021;-83
2023/06/09 08:36:20;;;;;;;9.25;5.93;;;;;;;32.31;29.25;101343.09;5030601;28;20488;-83
2023/06/09 08:38:46;;;;;;;8.95;5.75;;;;;;;32.62;29.55;101344.75;5031055;28;20033;-86
2023/06/09 08:41:11;;;;;;;8.43;5.53;;;;;;;32.94;28.62;101342.47;5031594;28;20056;-82
2023/06/09 08:43:36;;;;;;;8.70;5.63;;;;;;;31.97;29.44;101345.66;5012561;28;20570;-87
2023/06/09 08:46:06;;;;;;;9.50;6.07;;;;;;;31.63;29.88;101347.31;5030583;28;20491;-82
2023/06/09 08:48:32;;;;;;;14.38;6.35;;;;;;;31.66;30.21;101341.09;5012442;28;20095;-83
2023/06/09 08:50:58;;;;;;;8.57;5.80;;;;;;;32.06;30.01;101334.47;5030157;28;20021;-83
2023/06/09 08:53:24;;;;;;;8.38;5.38;;;;;;;33.22;28.29;101331.59;5031152;28;20086;-83
2023/06/09 08:55:50;;;;;;;11.23;5.90;;;;;;;33.85;27.29;101336.25;5028806;28;20037;-83
2023/06/09 08:58:15;;;;;;;7.53;5.32;;;;;;;33.77;27.26;101344.72;5029212;28;20031;-83
2023/06/09 09:00:41;;;;;;;6.82;5.35;;;;;;;33.90;27.12;101340.81;5050533;28;20044;-83
2023/06/09 09:03:07;;;;;;;8.68;5.20;;;;;;;33.17;27.72;101333.75;5049855;28;20411;-83
2023/06/09 09:05:32;;;;;;;7.82;4.90;;;;;;;33.74;25.90;101331.44;5048446;28;20328;-84
2023/06/09 09:07:57;;;;;;;8.38;5.28;;;;;;;33.25;26.86;101327.28;5030795;28;20059;-85
2023/06/09 09:10:23;;;;;;;7.78;5.25;;;;;;;33.32;26.00;101319.19;5012580;28;20025;-86
2023/06/09 09:12:49;;;;;;;7.75;5.15;;;;;;;33.24;27.08;101323.69;5010909;28;20400;-83
2023/06/09 09:15:15;;;;;;;6.78;5.03;;;;;;;33.74;26.20;101329.47;5031128;28;20168;-84
2023/06/09 09:17:40;;;;;;;6.32;4.50;;;;;;;33.27;27.22;101319.38;5028171;28;20467;-84
2023/06/09 09:20:10;;;;;;;7.47;5.07;;;;;;;34.39;25.24;101319.72;5026687;28;20339;-85
2023/06/09 09:22:49;;;;;;;7.20;4.40;;;;;;;34.98;25.23;101317.56;5028950;28;20037;-83
2023/06/09 09:25:25;;;;;;;7.05;4.90;;;;;;;33.51;25.52;101329.06;5026274;28;20036;-85
2023/06/09 09:28:20;;;;;;;5.15;4.65;;;;;;;33.34;25.98;101325.25;5029483;28;20091;-84
2023/06/09 09:30:50;;;;;;;5.18;4.47;;;;;;;32.99;25.79;101321.91;5001190;28;20045;-83
2023/06/09 09:33:21;;;;;;;5.78;4.22;;;;;;;33.74;25.83;101314.69;5024382;28;20030;-83
2023/06/09 09:35:48;;;;;;;6.53;4.50;;;;;;;33.63;25.52;101303.97;5021783;28;20077;-84
2023/06/09 09:38:19;;;;;;;5.65;4.68;;;;;;;33.26;25.71;101310.22;5029967;28;20462;-82
2023/06/09 09:40:46;;;;;;;5.32;4.35;;;;;;;34.11;25.17;101298.03;5026532;28;20029;-83
2023/06/09 09:43:12;;;;;;;5.43;4.65;;;;;;;33.83;24.14;101304.25;5023436;28;20053;-83
2023/06/09 09:45:45;;;;;;;7.55;4.80;;;;;;;33.98;24.44;101306.41;5027624;28;20258;-83
2023/06/09 09:48:12;;;;;;;6.57;4.93;;;;;;;34.00;24.21;101306.88;5016723;28;20090;-83
2023/06/09 09:50:38;;;;;;;8.82;4.88;;;;;;;33.99;24.02;101308.03;5027652;28;20045;-83
2023/06/09 09:53:09;;;;;;;4.57;4.05;;;;;;;35.16;22.61;101304.91;5035092;28;20032;-92
2023/06/09 09:55:41;;;;;;;6.45;4.13;;;;;;;35.42;22.94;101309.25;5032524;28;20127;-83
2023/06/09 09:58:07;;;;;;;4.95;4.18;;;;;;;35.84;22.25;101312.78;5028917;28;20061;-81
2023/06/09 10:00:35;;;;;;;5.15;4.55;;;;;;;35.04;22.66;101302.19;5041964;28;20119;-84
2023/06/09 10:03:02;;;;;;;4.63;4.20;;;;;;;34.96;22.89;101297.53;5018363;28;20030;-84
2023/06/09 10:05:29;;;;;;;7.35;4.60;;;;;;;35.16;22.91;101302.13;4993316;28;20037;-87
2023/06/09 10:07:55;;;;;;;6.20;4.38;;;;;;;34.15;22.69;101301.75;5030269;28;20025;-82
2023/06/09 10:10:21;;;;;;;5.25;4.50;;;;;;;35.45;21.96;101297.38;5013465;28;20036;-79
2023/06/09 10:12:48;;;;;;;6.60;4.53;;;;;;;35.10;23.31;101300.75;5030706;28;20045;-83
2023/06/09 10:15:13;;;;;;;7.47;4.97;;;;;;;34.63;23.27;101293.75;5011726;28;20045;-81
2023/06/09 10:17:39;;;;;;;5.10;4.63;;;;;;;35.17;22.51;101286.97;5028824;28;20025;-80
2023/06/09 10:20:05;;;;;;;5.70;4.43;;;;;;;34.31;23.75;101301.91;5030063;28;20029;-83
2023/06/09 10:22:32;;;;;;;5.10;4.60;;;;;;;34.03;24.01;101285.00;5012681;28;20029;-81
2023/06/09 10:24:58;;;;;;;10.02;4.90;;;;;;;33.58;24.85;101297.78;5030396;28;20037;-81
2023/06/09 10:27:24;;;;;;;6.25;4.57;;;;;;;34.26;23.53;101288.94;5018809;28;20030;-82
2023/06/09 10:29:50;;;;;;;5.25;4.75;;;;;;;34.84;23.59;101290.78;5031106;28;20089;-83
2023/06/09 10:32:21;;;;;;;11.60;5.00;;;;;;;34.75;23.43;101288.13;4982024;28;20041;-83
2023/06/09 10:34:46;;;;;;;6.35;4.43;;;;;;;35.39;22.98;101293.16;4985664;28;20041;-81
2023/06/09 10:37:12;;;;;;;6.13;4.60;;;;;;;35.19;23.70;101287.44;4994798;28;20087;-80
2023/06/09 10:40:02;;;;;;;10.02;4.85;;;;;;;34.25;23.92;101290.09;5028366;28;20033;-79
2023/06/09 10:42:37;;;;;;;5.15;4.65;;;;;;;34.12;23.92;101294.91;5014150;28;20489;-81
2023/06/09 10:45:09;;;;;;;5.80;4.55;;;;;;;35.17;22.84;101281.38;5011857;28;20025;-81
2023/06/09 10:47:43;;;;;;;8.80;5.47;;;;;;;34.37;23.64;101294.09;5013746;28;20548;-81
2023/06/09 10:50:24;;;;;;;4.77;4.37;;;;;;;34.07;24.48;101283.94;5027862;28;20028;-81
2023/06/09 10:52:54;;;;;;;5.57;4.30;;;;;;;34.49;23.86;101276.53;5028866;28;20136;-81
2023/06/09 10:55:21;;;;;;;6.10;4.53;;;;;;;34.50;23.30;101267.78;5032814;28;20017;-82
2023/06/09 10:57:46;;;;;;;6.70;4.22;;;;;;;34.98;23.30;101275.59;5031146;28;20021;-82
2023/06/09 11:00:13;;;;;;;7.68;4.78;;;;;;;34.87;22.04;101278.88;5033467;28;20109;-82
2023/06/09 11:02:52;;;;;;;4.97;4.50;;;;;;;34.93;22.27;101273.84;5032336;28;20045;-81
2023/06/09 11:05:19;;;;;;;5.13;4.63;;;;;;;34.81;22.71;101269.09;5032538;28;20036;-81
2023/06/09 11:07:50;;;;;;;4.90;4.50;;;;;;;35.50;21.92;101271.91;5014704;28;20038;-81
2023/06/09 11:10:18;;;;;;;6.47;4.85;;;;;;;34.56;23.08;101265.56;5030947;28;20041;-81
2023/06/09 11:12:45;;;;;;;7.82;4.50;;;;;;;35.50;22.67;101269.09;5032104;28;20069;-80
2023/06/09 11:15:11;;;;;;;4.82;4.30;;;;;;;35.35;21.48;101261.47;5032816;28;20362;-80
2023/06/09 11:17:37;;;;;;;5.60;4.13;;;;;;;34.96;23.01;101261.16;5003610;28;20026;-80
2023/06/09 11:20:06;;;;;;;5.32;4.60;;;;;;;35.35;22.80;101276.28;5022830;28;20060;-81
2023/06/09 11:22:32;;;;;;;5.72;4.63;;;;;;;34.47;22.68;101254.50;5023904;28;20123;-84